Data for 11/14/2005

Time Sea-Level Adjusted Pressure Absolute Pressure Temperature Relative Humidity Dew Point   
(mb) (inHg) (mb) (inHg) (C) (F) (%) (C) (F)
00:05 1010 29.83 839 24.78 5.6 42 51 -3.8 25.1
00:10 1009 29.8 839 24.78 5.5 41.9 51 -3.8 25.1
00:15 1009 29.8 839 24.78 5.5 41.9 50 -4 24.8
00:20 1009 29.8 838 24.75 5.5 41.9 51 -4 24.9
00:25 1009 29.8 838 24.75 5.4 41.8 51 -3.9 24.9
00:30 1009 29.8 838 24.75 5.4 41.7 51 -3.9 24.9
00:35 1009 29.8 838 24.75 5.4 41.7 51 -3.9 25.1
00:40 1009 29.8 838 24.75 5.3 41.5 53 -3.5 25.7
00:45 1009 29.8 838 24.75 5.1 41.2 55 -3.3 26.1
00:50 1009 29.8 838 24.75 4.9 40.9 56 -3.1 26.4
00:55 1009 29.8 838 24.75 4.8 40.7 56 -3.2 26.3
01:00 1009 29.8 838 24.75 4.8 40.6 56 -3.3 26.1
01:05 1009 29.8 838 24.75 4.7 40.5 56 -3.3 26.1
01:10 1009 29.8 838 24.75 4.7 40.5 55 -3.4 25.8
01:15 1008 29.77 838 24.75 4.7 40.4 54 -4 24.9
01:20 1008 29.77 838 24.75 4.9 40.8 52 -4.2 24.5
01:25 1008 29.77 838 24.75 5 41 53 -3.8 25.2
01:30 1008 29.77 837 24.72 5 40.9 52 -4.1 24.6
01:35 1008 29.77 837 24.72 5 41 53 -3.8 25.1
01:40 1008 29.77 837 24.72 5 40.9 54 -3.7 25.4
01:45 1008 29.77 837 24.72 5 40.9 54 -3.6 25.5
01:50 1008 29.77 837 24.72 4.9 40.8 54 -3.5 25.7
01:55 1008 29.77 837 24.72 4.8 40.7 55 -3.5 25.7
02:00 1008 29.77 837 24.72 5 41 54 -3.4 25.8
02:05 1008 29.77 837 24.72 5.1 41.1 54 -3.4 25.9
02:10 1008 29.77 837 24.72 5.3 41.5 53 -3.5 25.7
02:15 1008 29.77 837 24.72 5.3 41.5 54 -3.3 26.1
02:20 1008 29.77 837 24.72 5.2 41.3 54 -3.3 26.1
02:25 1008 29.77 837 24.72 5.2 41.3 55 -3.2 26.2
02:30 1008 29.77 837 24.72 5.1 41.1 56 -2.9 26.8
02:35 1008 29.77 837 24.72 4.9 40.8 60 -2.1 28.2
02:40 1008 29.77 837 24.72 4.5 40.2 67 -1.1 30
02:45 1008 29.77 837 24.72 4 39.2 70 -1 30.2
02:50 1008 29.77 837 24.72 3.7 38.7 72 -0.9 30.3
02:55 1008 29.77 837 24.72 3.7 38.6 70 -1.4 29.5
03:00 1008 29.77 837 24.72 3.9 39 69 -1.4 29.6
03:05 1008 29.77 837 24.72 3.9 39 68 -1.5 29.3
03:10 1008 29.77 837 24.72 3.9 39.1 70 -1.1 30
03:15 1008 29.77 838 24.75 3.2 37.8 79 -0.2 31.7
03:20 1008 29.77 837 24.72 2.8 37 78 -0.6 30.9
03:25 1008 29.77 838 24.75 2.8 37 77 -0.8 30.6
03:30 1008 29.77 837 24.72 2.9 37.1 76 -1 30.2
03:35 1008 29.77 837 24.72 3.1 37.5 72 -1.4 29.4
03:40 1008 29.77 837 24.72 3.5 38.2 68 -2 28.5
03:45 1008 29.77 837 24.72 3.7 38.7 68 -1.6 29.1
03:50 1008 29.77 837 24.72 3.6 38.5 69 -1.5 29.3
03:55 1008 29.77 837 24.72 3.6 38.5 71 -1.3 29.7
04:00 1008 29.77 837 24.72 3.4 38.2 71 -1.2 29.8
04:05 1008 29.77 837 24.72 3.3 38 72 -1.2 29.9
04:10 1008 29.77 837 24.72 3.1 37.6 74 -1.1 30
04:15 1008 29.77 837 24.72 3 37.4 75 -0.9 30.3
04:20 1008 29.77 837 24.72 2.8 37.1 77 -0.9 30.5
04:25 1008 29.77 837 24.72 2.7 36.8 77 -0.9 30.4
04:30 1008 29.77 837 24.72 2.6 36.7 77 -1 30.1
04:35 1008 29.77 837 24.72 2.6 36.6 77 -1.1 30
04:40 1008 29.77 837 24.72 2.5 36.5 76 -1.2 29.8
04:45 1008 29.77 837 24.72 2.5 36.5 76 -1.4 29.5
04:50 1008 29.77 837 24.72 2.5 36.6 74 -1.6 29.1
04:55 1008 29.77 838 24.75 2.6 36.6 74 -1.5 29.2
05:00 1009 29.8 838 24.75 2.6 36.7 74 -1.6 29.2
05:05 1009 29.8 838 24.75 2.5 36.5 74 -1.6 29.1
05:10 1009 29.8 838 24.75 2.4 36.3 74 -1.8 28.7
05:15 1009 29.8 838 24.75 2.3 36.2 72 -2.1 28.2
05:20 1009 29.8 838 24.75 2.3 36.1 73 -2.1 28.2
05:25 1009 29.8 838 24.75 2.1 35.8 74 -2.1 28.3
05:30 1009 29.8 838 24.75 2 35.6 74 -2.2 28.1
05:35 1009 29.8 838 24.75 2 35.5 74 -2.2 28.1
05:40 1009 29.8 838 24.75 1.9 35.4 73 -2.4 27.7
05:45 1009 29.8 838 24.75 1.8 35.2 74 -2.4 27.7
05:50 1009 29.8 839 24.78 1.5 34.7 76 -2.2 28
05:55 1009 29.8 839 24.78 1.2 34.2 78 -2.2 28
06:00 1010 29.83 839 24.78 1 33.9 80 -2.1 28.2
06:05 1010 29.83 839 24.78 0.8 33.5 80 -2.2 28
06:10 1010 29.83 839 24.78 0.6 33.1 81 -2.2 28
06:15 1010 29.83 839 24.78 0.3 32.5 81 -2.6 27.3
06:20 1010 29.83 840 24.81 -0.2 31.7 83 -2.7 27.1
06:25 1010 29.83 840 24.81 -0.4 31.3 84 -2.8 27
06:30 1010 29.83 840 24.81 -0.4 31.3 83 -2.9 26.7
06:35 1011 29.85 840 24.81 -0.3 31.4 82 -3.1 26.5
06:40 1011 29.85 840 24.81 -0.2 31.6 76 -4 24.9
06:45 1011 29.85 840 24.81 -0.2 31.6 75 -4.1 24.6
06:50 1011 29.85 840 24.81 -0.3 31.5 75 -4.2 24.5
06:55 1011 29.85 840 24.81 -0.3 31.5 74 -4.4 24.1
07:00 1011 29.85 840 24.81 -0.4 31.3 74 -4.5 23.9
07:05 1011 29.85 841 24.83 -0.4 31.3 67 -5.7 21.8
07:10 1011 29.85 841 24.83 -0.2 31.6 64 -6.3 20.7
07:15 1012 29.88 841 24.83 -0.1 31.8 62 -6.5 20.3
07:20 1012 29.88 841 24.83 -0.1 31.8 62 -6.5 20.2
07:25 1012 29.88 841 24.83 -0.1 31.7 65 -5.9 21.4
07:30 1012 29.88 841 24.83 -0.2 31.6 72 -4.7 23.5
07:35 1012 29.88 841 24.83 -0.5 31 74 -4.6 23.7
07:40 1012 29.88 842 24.86 -0.6 30.9 67 -6.1 21.1
07:45 1013 29.91 842 24.86 -0.6 30.8 65 -6.5 20.4
07:50 1012 29.88 842 24.86 -0.7 30.7 64 -6.7 20
07:55 1013 29.91 842 24.86 -0.8 30.6 64 -6.9 19.6
08:00 1013 29.91 842 24.86 -0.8 30.5 64 -6.7 19.9
08:05 1013 29.91 842 24.86 -0.9 30.4 64 -6.8 19.7
08:10 1013 29.91 842 24.86 -0.9 30.4 64 -6.9 19.6
08:15 1013 29.91 842 24.86 -0.9 30.4 63 -7.1 19.3
08:20 1013 29.91 842 24.86 -1 30.2 64 -7 19.4
08:25 1013 29.91 842 24.86 -1 30.1 64 -7 19.4
08:30 1013 29.91 842 24.86 -1 30.2 62 -7.4 18.6
08:35 1013 29.91 842 24.86 -0.9 30.3 61 -7.5 18.4
08:40 1013 29.91 842 24.86 -0.8 30.5 61 -7.3 18.8
08:45 1013 29.91 843 24.89 -0.7 30.7 63 -6.9 19.6
08:50 1013 29.91 843 24.89 -0.9 30.4 65 -6.6 20.1
08:55 1014 29.94 843 24.89 -0.9 30.4 64 -6.8 19.7
09:00 1014 29.94 843 24.89 -1 30.3 64 -6.9 19.5
09:05 1014 29.94 843 24.89 -0.9 30.4 64 -6.8 19.7
09:10 1014 29.94 843 24.89 -0.9 30.4 63 -7 19.4
09:15 1014 29.94 843 24.89 -0.8 30.5 63 -7.1 19.2
09:20 1014 29.94 843 24.89 -0.7 30.7 62 -7.2 19.1
09:25 1014 29.94 843 24.89 -0.6 30.9 60 -7.4 18.7
09:30 1014 29.94 844 24.92 -0.6 30.9 58 -7.8 18
09:35 1014 29.94 844 24.92 -0.6 30.9 56 -8.2 17.2
09:40 1015 29.97 844 24.92 -0.6 30.9 57 -8.1 17.5
09:45 1015 29.97 844 24.92 -0.6 31 57 -8.1 17.4
09:50 1015 29.97 844 24.92 -0.5 31.1 57 -8.1 17.4
09:55 1015 29.97 844 24.92 -0.4 31.3 56 -8.2 17.3
10:00 1015 29.97 844 24.92 -0.3 31.5 56 -7.9 17.7
10:05 1015 29.97 844 24.92 -0.1 31.8 55 -8 17.5
10:10 1015 29.97 844 24.92 -0.1 31.8 53 -8.5 16.7
10:15 1015 29.97 844 24.92 -0.1 31.9 51 -8.9 15.9
10:20 1015 29.97 844 24.92 -0.1 31.8 51 -9 15.8
10:25 1015 29.97 844 24.92 -0.1 31.8 51 -9 15.8
10:30 1015 29.97 844 24.92 -0.1 31.8 50 -9.2 15.5
10:35 1015 29.97 844 24.92 -0 31.9 51 -9 15.9
10:40 1015 29.97 844 24.92 0.1 32.1 51 -8.9 16
10:45 1015 29.97 844 24.92 0.1 32.2 52 -8.7 16.4
10:50 1015 29.97 845 24.95 0.3 32.5 52 -8.5 16.8
10:55 1015 29.97 845 24.95 0.3 32.5 50 -8.9 16
11:00 1015 29.97 845 24.95 0.4 32.7 50 -8.8 16.1
11:05 1015 29.97 845 24.95 0.3 32.6 50 -8.8 16.1
11:10 1016 30 845 24.95 0.3 32.5 57 -7.4 18.8
11:15 1016 30 845 24.95 -0.1 31.8 59 -7.2 19
11:20 1016 30 845 24.95 -0.4 31.3 64 -6.3 20.7
11:25 1016 30 845 24.95 -0.4 31.3 68 -5.6 21.9
11:30 1016 30 845 24.95 -0.7 30.8 72 -5.1 22.9
11:35 1016 30 845 24.95 -1.5 29.3 82 -4.1 24.6
11:40 1016 30 846 24.98 -2 28.3 85 -4.3 24.3
11:45 1016 30 846 24.98 -2.3 27.8 89 -4 24.9
11:50 1016 30 846 24.98 -2.5 27.5 92 -3.7 25.4
11:55 1017 30.03 846 24.98 -2.6 27.4 93 -3.6 25.5
12:00 1017 30.03 846 24.98 -2.5 27.5 91 -3.7 25.3
12:05 1017 30.03 846 24.98 -2.4 27.7 90 -3.8 25.1
12:10 1017 30.03 846 24.98 -2.5 27.6 89 -4 24.8
12:15 1017 30.03 846 24.98 -2.1 28.1 84 -4.5 23.9
12:20 1017 30.03 846 24.98 -1.9 28.6 82 -4.5 23.8
12:25 1017 30.03 846 24.98 -1.6 29 79 -4.8 23.3
12:30 1017 30.03 846 24.98 -1.6 29.2 78 -4.9 23.2
12:35 1017 30.03 846 24.98 -1.4 29.5 76 -5.1 22.8
12:40 1017 30.03 847 25.01 -1.3 29.7 73 -5.5 22.2
12:45 1018 30.06 847 25.01 -1.2 29.8 72 -5.6 21.9
12:50 1018 30.06 847 25.01 -1.1 30.1 71 -5.6 21.9
12:55 1018 30.06 847 25.01 -1 30.3 69 -6 21.2
13:00 1018 30.06 847 25.01 -0.8 30.5 67 -6.3 20.7
13:05 1018 30.06 847 25.01 -0.9 30.3 66 -6.5 20.2
13:10 1018 30.06 847 25.01 -1.1 29.9 69 -6.2 20.9
13:15 1018 30.06 847 25.01 -1.2 29.9 66 -6.6 20.1
13:20 1018 30.06 847 25.01 -1 30.1 64 -6.9 19.5
13:25 1018 30.06 848 25.04 -0.7 30.8 64 -6.7 20
13:30 1018 30.06 848 25.04 -0.3 31.5 63 -6.5 20.3
13:35 1019 30.09 848 25.04 -0.1 31.8 62 -6.4 20.4
13:40 1019 30.09 848 25.04 -0.3 31.4 63 -6.6 20.2
13:45 1019 30.09 848 25.04 -0.7 30.7 66 -6.2 20.8
13:50 1019 30.09 848 25.04 -1.2 29.8 67 -6.7 20
13:55 1019 30.09 848 25.04 -1.8 28.8 68 -7 19.4
14:00 1019 30.09 848 25.04 -1.6 29.1 66 -7.2 19
14:05 1019 30.09 848 25.04 -1.5 29.3 63 -7.6 18.4
14:10 1019 30.09 849 25.07 -1.5 29.3 65 -7.2 19
14:15 1020 30.12 849 25.07 -1.5 29.3 66 -7.1 19.3
14:20 1020 30.12 849 25.07 -1.8 28.7 65 -7.5 18.5
14:25 1020 30.12 849 25.07 -1.9 28.5 65 -7.6 18.2
14:30 1020 30.12 849 25.07 -1.9 28.6 65 -7.6 18.4
14:35 1020 30.12 849 25.07 -2.1 28.3 66 -7.6 18.4
14:40 1020 30.12 850 25.1 -2.1 28.2 64 -8.1 17.4
14:45 1021 30.15 850 25.1 -2.3 27.9 65 -8 17.6
14:50 1021 30.15 850 25.1 -2.2 28 67 -7.6 18.3
14:55 1021 30.15 850 25.1 -2.3 27.9 66 -7.8 17.9
15:00 1021 30.15 850 25.1 -2.5 27.6 67 -7.8 18
15:05 1021 30.15 850 25.1 -2.5 27.4 67 -7.9 17.7
15:10 1021 30.15 850 25.1 -2.7 27.2 68 -7.8 17.9
15:15 1021 30.15 851 25.13 -2.8 27 68 -7.8 17.9
15:20 1022 30.18 851 25.13 -2.8 26.9 69 -7.7 18.1
15:25 1022 30.18 851 25.13 -2.8 27 68 -7.9 17.8
15:30 1022 30.18 851 25.13 -2.8 26.9 68 -8 17.7
15:35 1022 30.18 851 25.13 -2.8 26.9 68 -8 17.7
15:40 1022 30.18 851 25.13 -2.9 26.8 68 -7.9 17.7
15:45 1022 30.18 851 25.13 -3 26.5 68 -8.2 17.3
15:50 1022 30.18 852 25.16 -3.2 26.3 67 -8.4 16.9
15:55 1022 30.18 852 25.16 -3.3 26.1 67 -8.6 16.5
16:00 1023 30.21 852 25.16 -3.2 26.3 66 -8.7 16.3
16:05 1023 30.21 852 25.16 -3.2 26.2 67 -8.5 16.7
16:10 1023 30.21 852 25.16 -3.3 26 66 -8.8 16.1
16:15 1023 30.21 852 25.16 -3.4 25.8 66 -8.9 16
16:20 1023 30.21 852 25.16 -3.4 25.9 66 -8.8 16.2
16:25 1024 30.24 853 25.19 -3.4 25.8 67 -8.8 16.2
16:30 1024 30.24 853 25.19 -3.6 25.4 68 -8.7 16.4
16:35 1024 30.24 853 25.19 -3.7 25.3 68 -8.8 16.2
16:40 1024 30.24 853 25.19 -3.8 25.1 69 -8.8 16.2
16:45 1024 30.24 853 25.19 -3.9 25 69 -8.7 16.3
16:50 1024 30.24 854 25.22 -4 24.7 69 -8.9 15.9
16:55 1025 30.27 854 25.22 -4.2 24.4 70 -8.9 16
17:00 1025 30.27 854 25.22 -4.3 24.2 71 -8.9 16
17:05 1025 30.27 854 25.22 -4.4 24.1 71 -8.8 16.1
17:10 1025 30.27 854 25.22 -4.5 23.9 72 -8.8 16.2
17:15 1025 30.27 854 25.22 -4.6 23.7 71 -9.1 15.6
17:20 1025 30.27 854 25.22 -4.8 23.4 72 -9.1 15.5
17:25 1025 30.27 854 25.22 -4.8 23.3 71 -9.3 15.2
17:30 1025 30.27 855 25.25 -4.9 23.1 71 -9.4 15.2
17:35 1026 30.3 855 25.25 -5 23 72 -9.3 15.3
17:40 1026 30.3 855 25.25 -5.1 22.8 72 -9.3 15.2
17:45 1026 30.3 855 25.25 -5.1 22.9 73 -9.2 15.5
17:50 1026 30.3 855 25.25 -5.1 22.9 73 -9.2 15.4
17:55 1026 30.3 855 25.25 -5.1 22.8 73 -9.2 15.4
18:00 1026 30.3 855 25.25 -5 23 72 -9.2 15.4
18:05 1026 30.3 855 25.25 -5 22.9 73 -9.2 15.5
18:10 1026 30.3 856 25.28 -5.1 22.9 73 -9.2 15.4
18:15 1026 30.3 856 25.28 -5.1 22.8 73 -9.2 15.4
18:20 1027 30.33 856 25.28 -5.1 22.9 73 -9.1 15.6
18:25 1027 30.33 856 25.28 -5 22.9 74 -9 15.8
18:30 1027 30.33 856 25.28 -5.2 22.7 74 -9.1 15.6
18:35 1027 30.33 856 25.28 -5.2 22.6 74 -9.1 15.6
18:40 1027 30.33 856 25.28 -5.2 22.6 74 -9.1 15.7
18:45 1027 30.33 856 25.28 -5.2 22.6 74 -9.1 15.6
18:50 1027 30.33 856 25.28 -5.2 22.6 74 -9.1 15.5
18:55 1027 30.33 857 25.31 -5.3 22.5 73 -9.3 15.2
19:00 1028 30.36 857 25.31 -5.3 22.4 73 -9.4 15
19:05 1028 30.36 857 25.31 -5.4 22.2 74 -9.3 15.2
19:10 1028 30.36 857 25.31 -5.6 22 74 -9.5 14.9
19:15 1028 30.36 857 25.31 -5.6 22 74 -9.5 15
19:20 1028 30.36 857 25.31 -5.7 21.8 75 -9.4 15
19:25 1028 30.36 857 25.31 -5.7 21.7 75 -9.4 15
19:30 1028 30.36 857 25.31 -5.7 21.7 75 -9.4 15
19:35 1028 30.36 857 25.31 -5.7 21.7 76 -9.4 15.1
19:40 1028 30.36 857 25.31 -5.8 21.6 76 -9.4 15.1
19:45 1028 30.36 857 25.31 -5.7 21.7 76 -9.4 15.1
19:50 1028 30.36 857 25.31 -5.9 21.3 76 -9.5 15
19:55 1028 30.36 857 25.31 -6 21.2 76 -9.6 14.7
20:00 1028 30.36 858 25.34 -6.1 21.1 76 -9.7 14.6
20:05 1028 30.36 858 25.34 -6.1 21 76 -9.7 14.5
20:10 1029 30.39 858 25.34 -6.2 20.8 76 -9.9 14.2
20:15 1029 30.39 858 25.34 -6.3 20.7 76 -9.9 14.1
20:20 1029 30.39 858 25.34 -6.4 20.5 76 -9.9 14.2
20:25 1029 30.39 858 25.34 -6.4 20.5 76 -10 14
20:30 1029 30.39 858 25.34 -6.3 20.7 75 -10.1 13.8
20:35 1029 30.39 858 25.34 -6.2 20.8 74 -10.1 13.7
20:40 1029 30.39 858 25.34 -6.3 20.6 74 -10.3 13.5
20:45 1029 30.39 858 25.34 -6.4 20.5 73 -10.4 13.3
20:50 1029 30.39 858 25.34 -6.9 19.5 76 -10.4 13.2
20:55 1029 30.39 859 25.37 -7.2 19 77 -10.6 12.9
21:00 1029 30.39 859 25.37 -7.2 19.1 76 -10.8 12.6
21:05 1029 30.39 859 25.37 -7 19.4 76 -10.6 12.9
21:10 1029 30.39 859 25.37 -6.8 19.7 74 -10.7 12.8
21:15 1029 30.39 859 25.37 -6.7 19.9 73 -10.8 12.6
21:20 1030 30.42 859 25.37 -6.7 19.9 72 -11 12.2
21:25 1030 30.42 859 25.37 -7.1 19.2 71 -11.5 11.3
21:30 1030 30.42 859 25.37 -7 19.4 71 -11.4 11.4
21:35 1030 30.42 859 25.37 -6.8 19.8 70 -11.3 11.6
21:40 1030 30.42 859 25.37 -6.7 19.9 70 -11.3 11.7
21:45 1030 30.42 859 25.37 -6.6 20.1 69 -11.5 11.3
21:50 1030 30.42 859 25.37 -6.6 20.2 67 -11.6 11.1
21:55 1030 30.42 859 25.37 -6.4 20.4 66 -11.8 10.8
22:00 1030 30.42 859 25.37 -6.4 20.5 65 -11.9 10.6
22:05 1030 30.42 859 25.37 -6.3 20.7 65 -11.9 10.7
22:10 1030 30.42 859 25.37 -6.3 20.6 66 -11.7 11
22:15 1030 30.42 859 25.37 -6.4 20.5 67 -11.5 11.4
22:20 1030 30.42 859 25.37 -6.6 20.1 69 -11.3 11.6
22:25 1030 30.42 859 25.37 -6.7 19.9 71 -11.2 11.8
22:30 1030 30.42 859 25.37 -7 19.5 72 -11.2 11.8
22:35 1030 30.42 859 25.37 -7.3 18.9 72 -11.5 11.3
22:40 1030 30.42 859 25.37 -7.3 18.9 73 -11.4 11.5
22:45 1030 30.42 859 25.37 -7.2 19 73 -11.2 11.8
22:50 1030 30.42 860 25.4 -7.2 19 73 -11.3 11.7
22:55 1030 30.42 860 25.4 -7.2 19.1 73 -11.2 11.8
23:00 1030 30.42 860 25.4 -7.1 19.2 73 -11.2 11.9
23:05 1030 30.42 860 25.4 -7 19.5 73 -11 12.2
23:10 1031 30.45 860 25.4 -6.8 19.8 72 -11 12.2
23:15 1031 30.45 860 25.4 -6.6 20.2 71 -10.9 12.4
23:20 1031 30.45 860 25.4 -6.8 19.8 73 -10.9 12.4
23:25 1031 30.45 860 25.4 -7 19.5 72 -11.1 12
23:30 1031 30.45 860 25.4 -6.9 19.6 72 -11.2 11.8
23:35 1031 30.45 860 25.4 -7 19.5 72 -11.2 11.8
23:40 1031 30.45 860 25.4 -6.9 19.5 71 -11.3 11.7
23:45 1031 30.45 860 25.4 -6.8 19.8 71 -11.2 11.8
23:50 1031 30.45 860 25.4 -6.7 19.9 70 -11.3 11.7
23:55 1031 30.45 860 25.4 -6.8 19.8 71 -11.2 11.8
24:00 1031 30.45 860 25.4 -6.7 19.9 70 -11.3 11.6